createdAt,value
2018-04-14T00:00:04.592Z,24.1
2018-04-14T00:00:54.746Z,24.1
2018-04-14T00:01:45.557Z,24.1
2018-04-14T00:02:35.625Z,24.1
2018-04-14T00:03:25.689Z,24.1
2018-04-14T00:04:15.777Z,24.1
2018-04-14T00:05:05.824Z,24.1
2018-04-14T00:05:55.582Z,24.1
2018-04-14T00:06:45.401Z,24.1
2018-04-14T00:07:35.148Z,24.1
2018-04-14T00:08:25.785Z,24.1
2018-04-14T00:09:15.831Z,24.1
2018-04-14T00:10:06.182Z,24.1
2018-04-14T00:10:56.306Z,24.1
2018-04-14T00:11:46.323Z,24.1
2018-04-14T00:12:35.364Z,24.1
2018-04-14T00:13:26.448Z,24.1
2018-04-14T00:14:15.951Z,24.1
2018-04-14T00:15:06.021Z,24.1
2018-04-14T00:15:56.394Z,24.1
2018-04-14T00:16:46.427Z,24.1
2018-04-14T00:17:36.497Z,24.1
2018-04-14T00:18:26.543Z,24.1
2018-04-14T00:19:16.947Z,24.1
2018-04-14T00:20:05.838Z,24.1
2018-04-14T00:20:56.425Z,24.1
2018-04-14T00:21:46.798Z,24.1
2018-04-14T00:22:36.875Z,24.1
2018-04-14T00:23:26.631Z,24.1
2018-04-14T00:24:17.002Z,24.1
2018-04-14T00:25:07.365Z,24.1
2018-04-14T00:25:57.423Z,24.1
2018-04-14T00:26:46.885Z,24.1
2018-04-14T00:27:36.733Z,24.1
2018-04-14T00:28:26.781Z,24.1
2018-04-14T00:29:17.640Z,24.1
2018-04-14T00:30:07.729Z,24.1
2018-04-14T00:30:57.750Z,24.1
2018-04-14T00:31:47.272Z,24.1
2018-04-14T00:32:37.927Z,24.1
2018-04-14T00:33:27.978Z,24.1
2018-04-14T00:34:18.030Z,24.1
2018-04-14T00:35:07.530Z,24.1
2018-04-14T00:35:57.614Z,24.1
2018-04-14T00:36:47.979Z,24.1
2018-04-14T00:37:37.996Z,24.1
2018-04-14T00:38:28.074Z,24.1
2018-04-14T00:39:17.542Z,24.1
2018-04-14T00:40:08.466Z,24.1
2018-04-14T00:40:58.282Z,24.1
2018-04-14T00:41:47.785Z,24.1
2018-04-14T00:42:38.372Z,24.1
2018-04-14T00:43:28.153Z,24.1
2018-04-14T00:44:18.800Z,24.1
2018-04-14T00:45:08.589Z,24.1
2018-04-14T00:45:58.637Z,24.1
2018-04-14T00:46:48.676Z,24.1
2018-04-14T00:47:38.740Z,24.1
2018-04-14T00:48:29.121Z,24.1
2018-04-14T00:49:18.588Z,24.1
2018-04-14T00:50:08.995Z,24.1
2018-04-14T00:50:59.000Z,24.1
2018-04-14T00:51:49.380Z,24.1
2018-04-14T00:52:39.151Z,24.1
2018-04-14T00:53:29.482Z,24.1
2018-04-14T00:54:18.712Z,24.1
2018-04-14T00:55:09.307Z,24.1
2018-04-14T00:55:59.436Z,24.1
2018-04-14T00:56:49.749Z,24.1
2018-04-14T00:57:39.858Z,24.1
2018-04-14T00:58:29.025Z,24.1
2018-04-14T00:59:19.639Z,24.1
2018-04-14T01:00:09.977Z,24.1
2018-04-14T01:01:00.057Z,24.1
2018-04-14T01:01:49.859Z,24.1
2018-04-14T01:02:40.169Z,24.1
2018-04-14T01:03:29.969Z,24.1
2018-04-14T01:04:20.314Z,24.1
2018-04-14T01:05:10.082Z,24.1
2018-04-14T01:05:59.898Z,24.1
2018-04-14T01:06:50.222Z,24.1
2018-04-14T01:07:40.332Z,24.1
2018-04-14T01:08:30.085Z,24.1
2018-04-14T01:09:20.146Z,24.1
2018-04-14T01:10:10.753Z,24.1
2018-04-14T01:11:00.012Z,24.1
2018-04-14T01:11:49.770Z,24.1
2018-04-14T01:12:40.383Z,24.1
2018-04-14T01:13:30.490Z,24.1
2018-04-14T01:14:21.078Z,24.1
2018-04-14T01:15:10.295Z,24.1
2018-04-14T01:16:00.691Z,24.1
2018-04-14T01:16:50.448Z,24.1
2018-04-14T01:17:41.065Z,24.1
2018-04-14T01:18:30.841Z,24.1
2018-04-14T01:19:21.178Z,24.1
2018-04-14T01:20:11.217Z,24.1
2018-04-14T01:21:01.318Z,24.1
2018-04-14T01:21:51.633Z,24.1
2018-04-14T01:22:41.959Z,24.1
2018-04-14T01:23:30.666Z,24.1
2018-04-14T01:24:21.844Z,24.1
2018-04-14T01:25:11.892Z,24.1
2018-04-14T01:26:01.984Z,24.1
2018-04-14T01:26:51.521Z,24.1
2018-04-14T01:27:41.569Z,24.1
2018-04-14T01:28:31.032Z,24.1
2018-04-14T01:29:21.931Z,24
2018-04-14T01:30:11.410Z,24.1
2018-04-14T01:31:02.349Z,24.1
2018-04-14T01:31:51.605Z,24.1
2018-04-14T01:32:41.632Z,24.1
2018-04-14T01:33:32.569Z,24.1
2018-04-14T01:34:22.323Z,24.1
2018-04-14T01:35:11.539Z,24.1
2018-04-14T01:36:02.205Z,24.1
2018-04-14T01:36:52.559Z,24.1
2018-04-14T01:37:42.072Z,24.1
2018-04-14T01:38:32.342Z,24.1
2018-04-14T01:39:21.855Z,24.1
2018-04-14T01:40:13.077Z,24.1
2018-04-14T01:41:02.278Z,24.1
2018-04-14T01:41:52.927Z,24.1
2018-04-14T01:42:42.411Z,24.1
2018-04-14T01:43:32.763Z,24.1
2018-04-14T01:44:23.069Z,24.1
2018-04-14T01:45:13.423Z,24.1
2018-04-14T01:46:03.217Z,24.1
2018-04-14T01:46:52.718Z,24.1
2018-04-14T01:47:43.023Z,24.1
2018-04-14T01:48:33.383Z,24.1
2018-04-14T01:49:23.179Z,24.1
2018-04-14T01:50:13.238Z,24.1
2018-04-14T01:51:03.048Z,24.1
2018-04-14T01:51:53.953Z,24.1
2018-04-14T01:52:43.998Z,24.1
2018-04-14T01:53:33.509Z,24.1
2018-04-14T01:54:23.838Z,24.1
2018-04-14T01:55:13.900Z,24.1
2018-04-14T01:56:04.305Z,24.1
2018-04-14T01:56:53.772Z,24.1
2018-04-14T01:57:43.536Z,24.1
2018-04-14T01:58:34.435Z,24.1
2018-04-14T01:59:24.497Z,24.1
2018-04-14T02:00:14.024Z,24.1
2018-04-14T02:01:04.107Z,24.1
2018-04-14T02:01:54.132Z,24.1
2018-04-14T02:02:43.919Z,24.1
2018-04-14T02:03:34.536Z,24.1
2018-04-14T02:04:24.625Z,24.1
2018-04-14T02:05:14.124Z,24.1
2018-04-14T02:06:04.769Z,24.1
2018-04-14T02:06:54.521Z,24.1
2018-04-14T02:07:44.289Z,24.1
2018-04-14T02:08:34.351Z,24.1
2018-04-14T02:09:24.439Z,24.1
2018-04-14T02:10:15.096Z,24.1
2018-04-14T02:11:04.549Z,24.1
2018-04-14T02:11:55.407Z,24.1
2018-04-14T02:12:45.244Z,24.1
2018-04-14T02:13:34.736Z,24.1
2018-04-14T02:14:25.356Z,24.1
2018-04-14T02:15:14.599Z,24.1
2018-04-14T02:16:04.929Z,24.1
2018-04-14T02:16:55.854Z,24
2018-04-14T02:17:44.745Z,24.1
2018-04-14T02:18:36.020Z,24.1
2018-04-14T02:19:26.130Z,24.1
2018-04-14T02:20:15.249Z,24.1
2018-04-14T02:21:05.893Z,24.1
2018-04-14T02:21:56.181Z,24.1
2018-04-14T02:22:45.993Z,24.1
2018-04-14T02:23:36.098Z,24.1
2018-04-14T02:24:26.193Z,24.1
2018-04-14T02:25:15.626Z,24.1
2018-04-14T02:26:06.260Z,24.1
2018-04-14T02:26:56.325Z,24.1
2018-04-14T02:27:46.076Z,24.1
2018-04-14T02:28:36.693Z,24.1
2018-04-14T02:29:25.939Z,24.1
2018-04-14T02:30:16.337Z,24.1
2018-04-14T02:31:06.929Z,24.1
2018-04-14T02:31:56.412Z,24.1
2018-04-14T02:32:46.767Z,24.1
2018-04-14T02:33:36.853Z,24.1
2018-04-14T02:34:26.611Z,24.1
2018-04-14T02:35:17.243Z,24.1
2018-04-14T02:36:07.050Z,24.1
2018-04-14T02:36:57.119Z,24.1
2018-04-14T02:37:46.893Z,24.1
2018-04-14T02:38:37.538Z,24.1
2018-04-14T02:39:27.025Z,24.1
2018-04-14T02:40:17.700Z,24.1
2018-04-14T02:41:07.695Z,24.1
2018-04-14T02:41:57.202Z,24.1
2018-04-14T02:42:47.514Z,24.1
2018-04-14T02:43:37.046Z,24.1
2018-04-14T02:44:27.447Z,24.1
2018-04-14T02:45:17.445Z,24.1
2018-04-14T02:46:07.506Z,24.1
2018-04-14T02:46:58.175Z,24.1
2018-04-14T02:47:47.932Z,24.1
2018-04-14T02:48:37.445Z,24.1
2018-04-14T02:49:28.362Z,24.1
2018-04-14T02:50:18.407Z,24.1
2018-04-14T02:51:07.914Z,24.1
2018-04-14T02:51:58.200Z,24.1
2018-04-14T02:52:48.013Z,24.1
2018-04-14T02:53:37.799Z,24.1
2018-04-14T02:54:28.142Z,24.1
2018-04-14T02:55:18.488Z,24.1
2018-04-14T02:56:08.325Z,24.1
2018-04-14T02:56:58.354Z,24.1
2018-04-14T02:57:48.671Z,24.1
2018-04-14T02:58:38.181Z,24.1
2018-04-14T02:59:28.514Z,24.1
2018-04-14T03:00:19.149Z,24.1
2018-04-14T03:01:08.607Z,24.1
2018-04-14T03:01:59.293Z,24.1
2018-04-14T03:02:48.485Z,24.1
2018-04-14T03:03:39.127Z,24.1
2018-04-14T03:04:29.520Z,24.1
2018-04-14T03:05:19.508Z,24.1
2018-04-14T03:06:09.289Z,24.1
2018-04-14T03:06:58.784Z,24.1
2018-04-14T03:07:48.576Z,24.1
2018-04-14T03:08:39.235Z,24.1
2018-04-14T03:09:29.339Z,24.1
2018-04-14T03:10:20.302Z,24.1
2018-04-14T03:11:09.108Z,24.1
2018-04-14T03:11:59.720Z,24.1
2018-04-14T03:12:49.888Z,24.1
2018-04-14T03:13:39.895Z,24.1
2018-04-14T03:14:30.224Z,24.1
2018-04-14T03:15:20.005Z,24.1
2018-04-14T03:16:09.841Z,24.1
2018-04-14T03:17:00.375Z,24.1
2018-04-14T03:17:50.237Z,24.1
2018-04-14T03:18:39.943Z,24.1
2018-04-14T03:19:30.297Z,24.1
2018-04-14T03:20:19.805Z,24.1
2018-04-14T03:21:10.141Z,24.1
2018-04-14T03:21:59.943Z,24.1
2018-04-14T03:22:50.017Z,24.1
2018-04-14T03:23:40.057Z,24.1
2018-04-14T03:24:30.955Z,24.1
2018-04-14T03:25:20.825Z,24.1
2018-04-14T03:26:11.071Z,24.1
2018-04-14T03:27:00.582Z,24.1
2018-04-14T03:27:50.912Z,24.1
2018-04-14T03:28:41.011Z,24.1
2018-04-14T03:29:31.075Z,24.1
2018-04-14T03:30:20.284Z,24.1
2018-04-14T03:31:11.250Z,24.1
2018-04-14T03:32:00.663Z,24.1
2018-04-14T03:32:51.314Z,24.1
2018-04-14T03:33:41.642Z,24.1
2018-04-14T03:34:31.182Z,24.1
2018-04-14T03:35:21.536Z,24.1
2018-04-14T03:36:11.821Z,24.1
2018-04-14T03:37:01.896Z,24.1
2018-04-14T03:37:51.686Z,24.1
2018-04-14T03:38:41.461Z,24.1
2018-04-14T03:39:31.800Z,24.1
2018-04-14T03:40:21.598Z,24.1
2018-04-14T03:41:11.670Z,24.1
2018-04-14T03:42:02.032Z,24.1
2018-04-14T03:42:52.325Z,24.1
2018-04-14T03:43:41.846Z,24.1
2018-04-14T03:44:32.498Z,24.1
2018-04-14T03:45:22.244Z,24.1
2018-04-14T03:46:12.611Z,24.1
2018-04-14T03:47:02.877Z,24.1
2018-04-14T03:47:52.448Z,24.1
2018-04-14T03:48:42.470Z,24.1
2018-04-14T03:49:32.329Z,24.1
2018-04-14T03:50:22.680Z,24.1
2018-04-14T03:51:12.687Z,24.1
2018-04-14T03:52:02.213Z,24.1
2018-04-14T03:52:53.145Z,24.1
2018-04-14T03:53:43.170Z,24.1
2018-04-14T03:54:32.712Z,24.1
2018-04-14T03:55:23.023Z,24.1
2018-04-14T03:56:13.407Z,24.1
2018-04-14T03:57:02.598Z,24.1
2018-04-14T03:57:53.205Z,24.1
2018-04-14T03:58:43.028Z,24.1
2018-04-14T03:59:33.607Z,24.1
2018-04-14T04:00:23.100Z,24.1
2018-04-14T04:01:13.482Z,24.1
2018-04-14T04:02:03.260Z,24.1
2018-04-14T04:02:53.832Z,24.1
2018-04-14T04:03:43.952Z,24.1
2018-04-14T04:04:33.999Z,24.1
2018-04-14T04:05:23.767Z,24.1
2018-04-14T04:06:13.849Z,24.1
2018-04-14T04:07:03.598Z,24.1
2018-04-14T04:07:54.242Z,24.1
2018-04-14T04:08:44.109Z,24.1
2018-04-14T04:09:34.373Z,24.1
2018-04-14T04:10:24.171Z,24.1
2018-04-14T04:11:14.484Z,24.1
2018-04-14T04:12:04.552Z,24.1
2018-04-14T04:12:54.629Z,24.1
2018-04-14T04:13:44.691Z,24.1
2018-04-14T04:14:34.214Z,24.1
2018-04-14T04:15:24.509Z,24.1
2018-04-14T04:16:14.939Z,24.1
2018-04-14T04:17:04.093Z,24.1
2018-04-14T04:17:54.460Z,24.1
2018-04-14T04:18:44.786Z,24.1
2018-04-14T04:19:35.162Z,24.1
2018-04-14T04:20:25.196Z,24.1
2018-04-14T04:21:15.278Z,24.1
2018-04-14T04:22:05.311Z,24.1
2018-04-14T04:22:55.406Z,24.1
2018-04-14T04:23:45.186Z,24.1
2018-04-14T04:24:34.643Z,24.1
2018-04-14T04:25:25.281Z,24.1
2018-04-14T04:26:15.634Z,24.1
2018-04-14T04:27:05.695Z,24.1
2018-04-14T04:27:54.933Z,24.1
2018-04-14T04:28:45.523Z,24.1
2018-04-14T04:29:35.882Z,24.1
2018-04-14T04:30:25.655Z,24.1
2018-04-14T04:31:15.710Z,24.1
2018-04-14T04:32:05.801Z,24.1
2018-04-14T04:32:55.025Z,24.1
2018-04-14T04:33:45.914Z,24.1
2018-04-14T04:34:35.737Z,24.1
2018-04-14T04:35:26.321Z,24.1
2018-04-14T05:24:10.205Z,24.1
2018-04-14T05:25:00.660Z,24.1
2018-04-14T05:25:50.765Z,24.1
2018-04-14T05:26:40.777Z,24.1
2018-04-14T05:27:31.422Z,24.1
2018-04-14T05:28:20.883Z,24.1
2018-04-14T05:29:11.513Z,24.1
2018-04-14T05:30:01.308Z,24.1
2018-04-14T05:30:51.140Z,24.1
2018-04-14T05:31:41.119Z,24.1
2018-04-14T05:32:31.488Z,24
2018-04-14T05:33:21.552Z,24.1
2018-04-14T05:34:11.610Z,24
2018-04-14T05:35:01.736Z,24.1
2018-04-14T05:35:51.467Z,24.1
2018-04-14T05:36:41.789Z,24.1
2018-04-14T05:37:32.759Z,24
2018-04-14T05:38:22.234Z,24
2018-04-14T05:39:10.847Z,24
2018-04-14T05:40:01.799Z,24
2018-04-14T05:40:51.847Z,24
2018-04-14T05:41:41.929Z,24
2018-04-14T05:42:31.682Z,24
2018-04-14T05:43:22.060Z,24
2018-04-14T05:44:12.618Z,24
2018-04-14T05:45:02.412Z,24
2018-04-14T05:45:52.197Z,24
2018-04-14T05:46:41.690Z,24
2018-04-14T05:47:32.623Z,24
2018-04-14T05:48:22.416Z,24
2018-04-14T05:49:12.476Z,23.9
2018-04-14T05:50:02.812Z,24
2018-04-14T05:50:52.171Z,24
2018-04-14T05:51:42.669Z,27.8
2018-04-14T05:52:32.745Z,28.9
2018-04-14T05:53:22.551Z,30.9
2018-04-14T05:54:12.055Z,31.8
2018-04-14T05:55:02.641Z,31.4
2018-04-14T05:55:53.531Z,29.3
2018-04-14T05:56:43.593Z,26.8
2018-04-14T05:57:32.851Z,25.4
2018-04-14T05:58:23.758Z,27.6
2018-04-14T05:59:13.512Z,28.6
2018-04-14T06:00:03.856Z,29.6
2018-04-14T06:00:53.058Z,30.3
2018-04-14T06:01:43.416Z,30.4
2018-04-14T06:02:33.490Z,30.3
2018-04-14T06:03:24.096Z,29.9
2018-04-14T06:04:13.056Z,29.9
2018-04-14T06:05:03.093Z,29.9
2018-04-14T06:05:53.455Z,30
2018-04-14T06:06:44.392Z,30.1
2018-04-14T06:07:34.166Z,30.3
2018-04-14T06:08:24.496Z,30.3
2018-04-14T06:09:14.586Z,30.3
2018-04-14T06:10:04.059Z,30.4
2018-04-14T06:10:54.682Z,30.5
2018-04-14T06:11:44.195Z,30.7
2018-04-14T06:12:34.229Z,30.8
2018-04-14T06:13:24.312Z,30.9
2018-04-14T06:14:14.649Z,31
2018-04-14T06:15:04.855Z,31.1
2018-04-14T06:15:55.015Z,31.3
2018-04-14T06:16:44.840Z,31.3
2018-04-14T06:17:35.159Z,31.4
2018-04-14T06:18:25.214Z,31.4
2018-04-14T06:19:14.447Z,31.6
2018-04-14T06:20:05.502Z,31.8
2018-04-14T06:20:54.857Z,31.8
2018-04-14T06:21:45.205Z,31.8
2018-04-14T06:22:35.276Z,31.9
2018-04-14T06:23:25.586Z,31.9
2018-04-14T06:24:14.832Z,32.1
2018-04-14T06:25:05.485Z,32.2
2018-04-14T06:25:55.794Z,32.3
2018-04-14T06:26:45.613Z,32.4
2018-04-14T06:27:35.650Z,32.6
2018-04-14T06:28:25.970Z,32.8
2018-04-14T06:29:15.536Z,32.9
2018-04-14T06:30:06.104Z,33.1
2018-04-14T06:30:56.208Z,33.3
2018-04-14T06:31:45.979Z,33.4
2018-04-14T06:32:36.564Z,33.6
2018-04-14T06:33:26.370Z,33.8
2018-04-14T06:34:15.871Z,33.9
2018-04-14T06:35:05.664Z,34
2018-04-14T06:35:56.044Z,34.1
2018-04-14T06:36:46.356Z,34.3
2018-04-14T06:37:36.432Z,34.4
2018-04-14T06:38:25.995Z,34.6
2018-04-14T06:39:16.560Z,34.8
2018-04-14T06:40:06.073Z,34.9
2018-04-14T06:40:56.453Z,35
2018-04-14T06:41:46.235Z,35.1
2018-04-14T06:42:36.677Z,35.3
2018-04-14T06:43:27.115Z,35.4
2018-04-14T06:44:16.662Z,35.6
2018-04-14T06:45:06.488Z,35.7
2018-04-14T06:45:57.342Z,35.9
2018-04-14T06:46:47.384Z,36
2018-04-14T06:47:36.604Z,36.2
2018-04-14T06:48:27.012Z,36.3
2018-04-14T06:49:16.512Z,36.4
2018-04-14T06:50:06.421Z,36.3
2018-04-14T06:50:56.078Z,36.2
2018-04-14T06:51:47.514Z,36
2018-04-14T06:52:37.812Z,35.8
2018-04-14T06:53:27.604Z,35.5
2018-04-14T06:54:16.839Z,35.5
2018-04-14T06:55:07.261Z,35.4
2018-04-14T06:55:58.118Z,35.1
2018-04-14T06:56:47.607Z,34.9
2018-04-14T06:57:37.917Z,35
2018-04-14T06:58:28.288Z,35.1
2018-04-14T06:59:18.396Z,35.3
2018-04-14T07:00:07.568Z,35.3
2018-04-14T07:00:58.195Z,35.4
2018-04-14T07:01:48.516Z,35.6
2018-04-14T07:02:38.340Z,35.8
2018-04-14T07:03:28.092Z,35.9
2018-04-14T07:04:18.496Z,36.1
2018-04-14T07:05:08.525Z,36.1
2018-04-14T07:05:58.306Z,36.3
2018-04-14T07:06:48.379Z,36.3
2018-04-14T07:07:38.498Z,36.5
2018-04-14T07:08:28.478Z,36.7
2018-04-14T07:09:18.834Z,36.8
2018-04-14T07:10:08.869Z,36.9
2018-04-14T07:10:59.229Z,37.1
2018-04-14T07:11:48.731Z,37.3
2018-04-14T07:12:39.348Z,37.5
2018-04-14T07:13:28.601Z,37.7
2018-04-14T07:14:18.668Z,37.9
2018-04-14T07:15:08.221Z,38.1
2018-04-14T07:15:59.053Z,38.3
2018-04-14T07:16:49.443Z,38.4
2018-04-14T07:17:39.209Z,38.6
2018-04-14T07:18:29.556Z,38.8
2018-04-14T07:19:19.627Z,38.9
2018-04-14T07:20:09.165Z,39.1
2018-04-14T07:20:59.152Z,39.3
2018-04-14T07:21:49.885Z,39.5
2018-04-14T07:22:39.894Z,39.7
2018-04-14T07:23:29.996Z,39.9
2018-04-14T07:24:19.988Z,40.1
2018-04-14T07:25:09.299Z,40.3
2018-04-14T07:25:59.348Z,40.4
2018-04-14T07:26:50.441Z,40.6
2018-04-14T07:27:39.176Z,40.8
2018-04-14T07:28:30.120Z,40.9
2018-04-14T07:29:20.341Z,41.1
2018-04-14T07:30:10.131Z,41.3
2018-04-14T07:31:00.736Z,41.4
2018-04-14T07:31:50.855Z,41.6
2018-04-14T07:32:40.341Z,41.8
2018-04-14T07:33:30.675Z,42
2018-04-14T07:34:21.243Z,42.1
2018-04-14T07:35:10.287Z,42.3
2018-04-14T07:35:59.813Z,42.4
2018-04-14T07:36:50.510Z,42.6
2018-04-14T07:37:41.573Z,42.8
2018-04-14T07:38:29.938Z,42.9
2018-04-14T07:39:19.809Z,43.1
2018-04-14T07:40:10.639Z,43.3
2018-04-14T07:41:00.670Z,43.4
2018-04-14T07:41:50.574Z,43.6
2018-04-14T07:42:39.994Z,43.8
2018-04-14T07:43:30.946Z,43.9
2018-04-14T07:44:20.454Z,44.1
2018-04-14T07:45:11.393Z,44.3
2018-04-14T07:46:00.907Z,44.4
2018-04-14T07:46:51.239Z,44.6
2018-04-14T07:47:41.504Z,44.8
2018-04-14T07:48:31.844Z,44.9
2018-04-14T07:49:22.178Z,45
2018-04-14T07:50:11.425Z,45.2
2018-04-14T07:51:02.334Z,45.4
2018-04-14T07:51:51.842Z,45.5
2018-04-14T07:52:42.484Z,45.7
2018-04-14T07:53:32.227Z,45.8
2018-04-14T07:54:22.279Z,46
2018-04-14T07:55:12.654Z,46.1
2018-04-14T07:56:02.747Z,46.3
2018-04-14T07:56:52.808Z,46.4
2018-04-14T07:57:42.565Z,46.6
2018-04-14T07:58:32.351Z,46.8
2018-04-14T07:59:22.702Z,46.9
2018-04-14T08:00:12.806Z,47.1
2018-04-14T08:01:02.578Z,47.3
2018-04-14T08:01:52.903Z,47.4
2018-04-14T08:02:42.989Z,47.5
2018-04-14T08:03:32.685Z,47.7
2018-04-14T08:04:23.095Z,47.8
2018-04-14T08:05:12.540Z,48
2018-04-14T08:06:02.926Z,48.1
2018-04-14T08:06:52.717Z,48.3
2018-04-14T08:07:43.630Z,48.4
2018-04-14T08:08:33.389Z,48.5
2018-04-14T08:09:23.508Z,48.7
2018-04-14T08:10:13.256Z,48.8
2018-04-14T08:11:03.356Z,48.9
2018-04-14T08:11:53.648Z,48.9
2018-04-14T08:12:43.424Z,48.8
2018-04-14T08:13:34.070Z,48.9
2018-04-14T08:14:23.840Z,49.1
2018-04-14T08:15:13.070Z,49.2
2018-04-14T08:16:03.998Z,49.3
2018-04-14T08:16:53.754Z,48.8
2018-04-14T08:17:44.433Z,48.1
2018-04-14T08:18:34.472Z,47.9
2018-04-14T08:19:23.962Z,48
2018-04-14T08:20:14.259Z,48.1
2018-04-14T08:21:04.367Z,48.3
2018-04-14T08:21:54.179Z,48.4
2018-04-14T08:22:44.479Z,48.4
2018-04-14T08:23:34.567Z,48.6
2018-04-14T08:24:24.288Z,48.8
2018-04-14T08:25:14.964Z,48.9
2018-04-14T08:26:04.775Z,49.1
2018-04-14T08:26:54.812Z,49.4
2018-04-14T08:27:44.835Z,49.5
2018-04-14T08:28:34.908Z,49.8
2018-04-14T08:29:25.009Z,49.9
2018-04-14T08:30:15.328Z,50.1
2018-04-14T08:31:05.147Z,50.3
2018-04-14T08:31:54.093Z,50.5
2018-04-14T08:32:45.236Z,50.7
2018-04-14T08:33:34.811Z,50.9
2018-04-14T08:34:24.801Z,51.1
2018-04-14T08:35:15.819Z,51.3
2018-04-14T08:36:05.751Z,51.4
2018-04-14T08:36:54.450Z,51.6
2018-04-14T08:37:45.336Z,51.8
2018-04-14T08:38:35.710Z,51.9
2018-04-14T08:39:25.003Z,52.1
2018-04-14T08:40:15.808Z,52.3
2018-04-14T08:41:05.881Z,52.4
2018-04-14T08:41:55.076Z,52.5
2018-04-14T08:42:45.988Z,52.6
2018-04-14T08:43:35.527Z,52.7
2018-04-14T08:44:26.189Z,52.9
2018-04-14T08:45:15.707Z,53.1
2018-04-14T08:46:05.788Z,53.2
2018-04-14T08:46:56.332Z,53.4
2018-04-14T08:47:46.352Z,53.5
2018-04-14T08:48:36.180Z,53.6
2018-04-14T08:49:26.802Z,53.8
2018-04-14T08:50:16.306Z,53.9
2018-04-14T08:51:06.681Z,54.1
2018-04-14T08:51:56.718Z,54.3
2018-04-14T08:52:46.769Z,54.4
2018-04-14T08:53:37.116Z,54.5
2018-04-14T08:54:26.930Z,54.7
2018-04-14T08:55:17.011Z,54.8
2018-04-14T08:56:07.020Z,54.9
2018-04-14T08:56:56.795Z,55
2018-04-14T08:57:46.840Z,55.2
2018-04-14T08:58:37.209Z,55.3
2018-04-14T08:59:26.839Z,55.4
2018-04-14T09:00:17.672Z,55.6
2018-04-14T09:01:07.437Z,55.7
2018-04-14T09:01:57.768Z,55.8
2018-04-14T09:02:47.841Z,55.9
2018-04-14T09:03:37.321Z,56
2018-04-14T09:04:26.429Z,56.1
2018-04-14T09:05:17.009Z,56.1
2018-04-14T09:06:07.805Z,55.5
2018-04-14T09:06:57.845Z,55.3
2018-04-14T09:07:47.936Z,55.3
2018-04-14T09:08:37.442Z,55.4
2018-04-14T09:09:27.785Z,55.6
2018-04-14T09:10:17.851Z,55.6
2018-04-14T09:11:08.210Z,55.8
2018-04-14T09:11:58.277Z,55.9
2018-04-14T09:12:48.555Z,56
2018-04-14T09:13:38.085Z,56.1
2018-04-14T09:14:28.467Z,56.3
2018-04-14T09:15:18.812Z,56.5
2018-04-14T09:16:09.006Z,56.6
2018-04-14T09:16:58.379Z,56.8
2018-04-14T09:17:48.708Z,56.9
2018-04-14T09:18:38.199Z,57.1
2018-04-14T09:19:27.807Z,57.2
2018-04-14T09:20:19.134Z,57.4
2018-04-14T09:21:08.696Z,57.4
2018-04-14T09:21:58.742Z,57.6
2018-04-14T09:23:39.181Z,57.9
2018-04-14T09:24:29.224Z,58
2018-04-14T09:25:18.981Z,58.2
2018-04-14T09:26:09.364Z,58.3
2018-04-14T09:26:59.432Z,58.4
2018-04-14T09:27:49.492Z,58.5
2018-04-14T09:28:39.614Z,58.6
2018-04-14T09:29:29.345Z,58.8
2018-04-14T09:30:19.661Z,58.9
2018-04-14T09:31:09.766Z,59
2018-04-14T09:31:59.529Z,59.1
2018-04-14T09:32:50.255Z,59.3
2018-04-14T09:33:39.408Z,59.3
2018-04-14T09:34:30.307Z,59.4
2018-04-14T09:35:20.404Z,59.5
2018-04-14T09:36:10.417Z,59.6
2018-04-14T09:37:00.434Z,59.7
2018-04-14T09:37:50.280Z,59.9
2018-04-14T09:38:40.059Z,59.9
2018-04-14T09:39:29.851Z,60.1
2018-04-14T09:40:20.212Z,60.2
2018-04-14T09:41:10.532Z,60.3
2018-04-14T09:42:00.655Z,60.4
2018-04-14T09:42:50.710Z,60.6
2018-04-14T09:43:40.175Z,60.6
2018-04-14T09:44:30.565Z,60.6
2018-04-14T09:45:20.569Z,60.8
2018-04-14T09:46:10.622Z,60.9
2018-04-14T09:47:01.271Z,60.9
2018-04-14T09:47:51.324Z,61.1
2018-04-14T09:48:40.560Z,61.2
2018-04-14T09:49:30.880Z,61.3
2018-04-14T09:50:21.265Z,61.4
2018-04-14T09:51:11.108Z,61.4
2018-04-14T09:52:00.815Z,61.6
2018-04-14T09:52:51.155Z,61.6
2018-04-14T09:53:40.925Z,61.8
2018-04-14T09:54:29.567Z,61.9
2018-04-14T09:55:21.353Z,61.9
2018-04-14T09:56:11.448Z,61.9
2018-04-14T09:57:01.475Z,62.1
2018-04-14T09:57:52.112Z,62.2
2018-04-14T09:58:42.162Z,62.3
2018-04-14T09:59:31.407Z,62.4
2018-04-14T10:00:21.749Z,62.4
2018-04-14T10:01:12.388Z,62.6
2018-04-14T10:02:02.455Z,62.6
2018-04-14T10:02:52.268Z,62.7
2018-04-14T10:03:42.287Z,62.8
2018-04-14T10:04:32.067Z,62.9
2018-04-14T10:05:21.866Z,62.9
2018-04-14T10:06:12.195Z,63
2018-04-14T10:07:02.821Z,63.1
2018-04-14T10:07:52.428Z,63.3
2018-04-14T10:08:42.669Z,63.3
2018-04-14T10:09:32.724Z,63.4
2018-04-14T10:10:22.773Z,63.5
2018-04-14T10:11:12.316Z,63.6
2018-04-14T10:12:03.226Z,63.6
2018-04-14T10:12:53.002Z,63.8
2018-04-14T10:13:42.776Z,63.8
2018-04-14T10:14:32.608Z,63.9
2018-04-14T10:15:22.885Z,63.9
2018-04-14T10:16:13.469Z,64.1
2018-04-14T10:17:02.771Z,64.2
2018-04-14T10:17:53.113Z,64.3
2018-04-14T10:18:43.197Z,64.4
2018-04-14T10:19:32.679Z,64.4
2018-04-14T10:20:23.270Z,64.5
2018-04-14T10:21:13.940Z,64.6
2018-04-14T10:22:03.674Z,64.7
2018-04-14T10:22:53.209Z,64.8
2018-04-14T10:23:44.089Z,64.8
2018-04-14T10:24:34.171Z,64.9
2018-04-14T10:25:23.969Z,65.1
2018-04-14T10:26:14.341Z,65.1
2018-04-14T10:27:04.735Z,65.2
2018-04-14T10:27:53.867Z,65.3
2018-04-14T10:28:44.015Z,65.4
2018-04-14T10:29:33.722Z,65.5
2018-04-14T10:30:24.740Z,65.6
2018-04-14T10:31:14.729Z,65.6
2018-04-14T10:32:03.927Z,65.7
2018-04-14T10:32:54.104Z,65.8
2018-04-14T10:33:44.636Z,65.9
2018-04-14T10:34:34.961Z,66
2018-04-14T10:35:24.760Z,66
2018-04-14T10:36:14.821Z,66.1
2018-04-14T10:37:04.855Z,66.3
2018-04-14T10:37:56.305Z,66.3
2018-04-14T10:38:44.409Z,66.4
2018-04-14T10:39:35.063Z,66.4
2018-04-14T10:40:24.837Z,66.5
2018-04-14T10:41:15.185Z,66.6
2018-04-14T10:42:05.278Z,66.8
2018-04-14T10:42:55.029Z,66.8
2018-04-14T10:43:45.690Z,66.8
2018-04-14T10:44:35.223Z,66.9
2018-04-14T10:45:25.571Z,66.9
2018-04-14T10:46:15.870Z,67.1
2018-04-14T10:47:05.128Z,67.1
2018-04-14T10:47:55.504Z,67.2
2018-04-14T10:48:45.478Z,67.3
2018-04-14T10:49:35.866Z,67.3
2018-04-14T10:50:25.631Z,67.4
2018-04-14T10:51:14.946Z,67.4
2018-04-14T10:52:06.039Z,67.5
2018-04-14T10:52:55.830Z,67.6
2018-04-14T10:53:45.630Z,67.6
2018-04-14T10:54:34.797Z,67.7
2018-04-14T10:55:26.013Z,67.8
2018-04-14T10:56:16.364Z,67.9
2018-04-14T10:57:06.141Z,67.9
2018-04-14T10:57:56.220Z,68
2018-04-14T10:58:46.284Z,68.1
2018-04-14T10:59:36.665Z,68.1
2018-04-14T11:00:26.408Z,68.2
2018-04-14T11:01:16.021Z,68.3
2018-04-14T11:02:06.853Z,68.3
2018-04-14T11:02:56.426Z,68.4
2018-04-14T11:03:46.716Z,68.4
2018-04-14T11:04:37.282Z,68.5
2018-04-14T11:05:27.340Z,68.6
2018-04-14T11:06:16.289Z,68.6
2018-04-14T11:07:07.174Z,68.7
2018-04-14T11:07:57.550Z,68.8
2018-04-14T11:08:47.634Z,68.8
2018-04-14T11:09:36.861Z,68.9
2018-04-14T11:10:27.491Z,68.9
2018-04-14T11:11:17.559Z,69
2018-04-14T11:12:07.629Z,69.1
2018-04-14T11:12:57.953Z,69.1
2018-04-14T11:13:47.453Z,69.2
2018-04-14T11:14:37.523Z,69.3
2018-04-14T11:15:27.587Z,69.3
2018-04-14T11:16:17.639Z,69.3
2018-04-14T11:17:08.007Z,69.4
2018-04-14T11:17:58.071Z,69.4
2018-04-14T11:18:48.398Z,69.6
2018-04-14T11:19:37.628Z,69.6
2018-04-14T11:20:28.242Z,69.7
2018-04-14T11:21:17.240Z,69.8
2018-04-14T11:22:08.105Z,69.8
2018-04-14T11:22:58.718Z,69.8
2018-04-14T11:23:48.217Z,69.9
2018-04-14T11:24:38.310Z,69.9
2018-04-14T11:25:28.364Z,70
2018-04-14T11:26:18.415Z,70.1
2018-04-14T11:27:09.050Z,70.1
2018-04-14T11:27:59.110Z,70.2
2018-04-14T11:28:48.640Z,70.3
2018-04-14T11:29:38.983Z,70.3
2018-04-14T11:30:29.373Z,70.3
2018-04-14T11:31:19.569Z,70.4
2018-04-14T11:32:09.226Z,70.4
2018-04-14T11:32:58.361Z,70.4
2018-04-14T11:33:49.578Z,70.5
2018-04-14T11:34:39.099Z,70.6
2018-04-14T11:35:28.932Z,70.6
2018-04-14T11:36:18.911Z,70.6
2018-04-14T11:37:09.059Z,70.7
2018-04-14T11:37:59.699Z,70.8
2018-04-14T11:38:49.681Z,70.8
2018-04-14T11:39:54.689Z,70.8
2018-04-14T11:40:29.575Z,70.8
2018-04-14T11:41:19.886Z,70.9
2018-04-14T11:42:09.943Z,70.9
2018-04-14T11:42:59.479Z,71
2018-04-14T11:43:50.325Z,71.1
2018-04-14T11:44:40.422Z,71.1
2018-04-14T11:45:29.355Z,71.1
2018-04-14T11:46:20.289Z,71.2
2018-04-14T11:47:09.784Z,71.3
2018-04-14T11:48:00.674Z,71.3
2018-04-14T11:48:50.753Z,71.3
2018-04-14T11:49:40.542Z,71.4
2018-04-14T11:50:30.314Z,71.4
2018-04-14T11:51:20.395Z,71.4
2018-04-14T11:52:10.720Z,71.5
2018-04-14T11:53:00.734Z,71.6
2018-04-14T11:53:50.571Z,71.6
2018-04-14T11:54:40.611Z,71.6
2018-04-14T11:55:30.972Z,71.6
2018-04-14T11:56:21.338Z,71.7
2018-04-14T11:57:11.180Z,71.8